createdAt,value
2023-05-05T00:00:01.373Z,12.35
2023-05-05T00:03:03.714Z,12.37
2023-05-05T00:06:06.569Z,12.42
2023-05-05T00:09:08.781Z,12.37
2023-05-05T00:12:11.006Z,12.38
2023-05-05T00:15:13.266Z,12.34
2023-05-05T00:18:17.044Z,12.45
2023-05-05T00:21:19.326Z,12.29
2023-05-05T00:24:21.518Z,12.40
2023-05-05T00:27:23.682Z,12.35
2023-05-05T00:30:27.626Z,12.22
2023-05-05T00:33:29.895Z,12.34
2023-05-05T00:36:32.038Z,12.25
2023-05-05T00:39:34.335Z,12.08
2023-05-05T00:42:47.723Z,12.07
2023-05-05T00:46:11.032Z,12.10
2023-05-05T00:49:13.313Z,11.90
2023-05-05T00:52:15.535Z,11.98
2023-05-05T00:55:17.924Z,12.00
2023-05-05T00:58:20.177Z,11.89
2023-05-05T01:01:22.410Z,11.81
2023-05-05T01:04:26.801Z,11.91
2023-05-05T01:07:43.340Z,11.89
2023-05-05T01:10:49.099Z,11.88
2023-05-05T01:14:03.151Z,11.85
2023-05-05T01:17:18.463Z,11.67
2023-05-05T01:20:46.033Z,11.71
2023-05-05T01:23:48.778Z,11.80
2023-05-05T01:27:35.610Z,11.87
2023-05-05T01:30:43.701Z,11.94
2023-05-05T01:33:51.566Z,11.80
2023-05-05T01:37:04.686Z,11.68
2023-05-05T01:40:08.446Z,11.60
2023-05-05T01:43:12.392Z,11.50
2023-05-05T01:46:15.616Z,11.42
2023-05-05T01:49:17.944Z,11.50
2023-05-05T01:52:20.686Z,11.23
2023-05-05T01:55:25.518Z,11.18
2023-05-05T01:58:29.050Z,11.20
2023-05-05T02:01:31.958Z,11.16
2023-05-05T02:04:36.467Z,10.97
2023-05-05T02:07:39.335Z,10.84
2023-05-05T02:10:41.774Z,10.64
2023-05-05T02:13:44.551Z,10.28
2023-05-05T02:16:47.246Z,10.33
2023-05-05T02:19:49.880Z,10.37
2023-05-05T02:22:52.072Z,10.36
2023-05-05T02:25:59.581Z,10.21
2023-05-05T02:29:09.323Z,10.04
2023-05-05T02:32:17.223Z,10.19
2023-05-05T02:35:32.526Z,10.03
2023-05-05T02:38:37.368Z,9.90
2023-05-05T02:41:41.491Z,9.94
2023-05-05T02:44:45.550Z,9.88
2023-05-05T02:47:47.778Z,9.72
2023-05-05T02:50:49.984Z,9.74
2023-05-05T02:53:52.594Z,9.54
2023-05-05T02:56:57.484Z,9.45
2023-05-05T03:00:21.727Z,9.33
2023-05-05T03:03:41.079Z,9.22
2023-05-05T03:06:47.779Z,9.13
2023-05-05T03:09:57.964Z,9.30
2023-05-05T03:13:01.625Z,9.14
2023-05-05T03:16:06.826Z,9.07
2023-05-05T03:19:11.446Z,9.14
2023-05-05T03:22:13.711Z,9.00
2023-05-05T03:25:15.878Z,9.05
2023-05-05T03:28:18.097Z,8.85
2023-05-05T03:31:20.310Z,8.82
2023-05-05T03:34:22.518Z,8.87
2023-05-05T03:37:24.772Z,8.77
2023-05-05T03:40:36.184Z,8.97
2023-05-05T03:43:42.848Z,8.88
2023-05-05T03:46:44.999Z,8.85
2023-05-05T03:49:47.143Z,9.01
2023-05-05T03:52:49.315Z,9.09
2023-05-05T03:55:52.448Z,9.15
2023-05-05T03:58:54.615Z,9.70
2023-05-05T04:01:56.940Z,10.17
2023-05-05T04:04:59.225Z,10.88
2023-05-05T04:08:01.512Z,10.74
2023-05-05T04:11:03.677Z,11.41
2023-05-05T04:14:05.848Z,12.26
2023-05-05T04:17:08.014Z,12.37
2023-05-05T04:20:10.540Z,12.90
2023-05-05T04:23:12.982Z,13.44
2023-05-05T04:26:15.168Z,13.44
2023-05-05T04:29:17.723Z,13.54
2023-05-05T04:32:19.998Z,13.69
2023-05-05T04:35:22.451Z,13.07
2023-05-05T04:38:24.749Z,12.66
2023-05-05T04:41:28.250Z,12.44
2023-05-05T04:44:32.433Z,12.23
2023-05-05T04:47:38.764Z,12.26
2023-05-05T04:50:40.992Z,12.46
2023-05-05T04:53:43.211Z,12.78
2023-05-05T04:56:45.368Z,13.53
2023-05-05T04:59:47.561Z,13.76
2023-05-05T05:02:49.784Z,13.08
2023-05-05T05:05:51.974Z,13.18
2023-05-05T05:08:54.162Z,13.08
2023-05-05T05:12:00.942Z,13.20
2023-05-05T05:15:03.365Z,14.00
2023-05-05T05:18:05.824Z,13.56
2023-05-05T05:21:08.460Z,13.46
2023-05-05T05:24:11.594Z,14.02
2023-05-05T05:27:13.816Z,14.27
2023-05-05T05:30:16.241Z,14.40
2023-05-05T05:33:18.919Z,14.96
2023-05-05T05:36:21.066Z,15.29
2023-05-05T05:39:23.324Z,14.66
2023-05-05T05:42:25.900Z,14.50
2023-05-05T05:45:28.070Z,15.25
2023-05-05T05:48:30.338Z,15.34
2023-05-05T05:51:32.528Z,15.72
2023-05-05T05:54:35.659Z,15.57
2023-05-05T05:57:37.851Z,15.42
2023-05-05T06:00:40.043Z,15.92
2023-05-05T06:03:42.318Z,15.77
2023-05-05T06:06:44.592Z,15.93
2023-05-05T06:09:47.208Z,15.87
2023-05-05T06:12:49.478Z,16.19
2023-05-05T06:15:51.747Z,16.34
2023-05-05T06:18:53.987Z,16.83
2023-05-05T06:21:56.304Z,17.02
2023-05-05T06:24:58.505Z,17.17
2023-05-05T06:28:00.706Z,16.99
2023-05-05T06:31:02.914Z,17.01
2023-05-05T06:34:05.107Z,17.14
2023-05-05T06:37:07.291Z,17.38
2023-05-05T06:40:10.583Z,17.37
2023-05-05T06:43:12.912Z,17.47
2023-05-05T06:46:15.234Z,17.36
2023-05-05T06:49:17.508Z,17.57
2023-05-05T06:52:19.672Z,17.98
2023-05-05T06:55:23.424Z,18.00
2023-05-05T06:58:25.612Z,18.13
2023-05-05T07:01:27.891Z,17.76
2023-05-05T07:04:30.058Z,18.02
2023-05-05T07:07:32.630Z,17.90
2023-05-05T07:10:35.101Z,18.11
2023-05-05T07:13:37.305Z,17.98
2023-05-05T07:16:39.665Z,18.11
2023-05-05T07:19:41.918Z,18.20
2023-05-05T07:22:44.153Z,18.28
2023-05-05T07:25:46.370Z,18.60
2023-05-05T07:28:48.525Z,18.29
2023-05-05T07:31:51.001Z,18.66
2023-05-05T07:34:53.215Z,18.92
2023-05-05T07:37:55.654Z,19.45
2023-05-05T07:40:57.972Z,19.68
2023-05-05T07:44:01.220Z,19.60
2023-05-05T07:47:03.432Z,19.72
2023-05-05T07:50:06.602Z,20.05
2023-05-05T07:53:14.522Z,19.99
2023-05-05T07:56:17.346Z,20.34
2023-05-05T07:59:19.518Z,20.34
2023-05-05T08:02:22.053Z,19.96
2023-05-05T08:05:24.316Z,20.48
2023-05-05T08:08:27.058Z,20.60
2023-05-05T08:11:29.745Z,20.94
2023-05-05T08:14:32.927Z,20.92
2023-05-05T08:17:46.844Z,21.15
2023-05-05T08:20:49.335Z,21.28
2023-05-05T08:23:51.464Z,20.92
2023-05-05T08:26:54.516Z,21.03
2023-05-05T08:29:57.710Z,21.22
2023-05-05T08:33:00.623Z,21.30
2023-05-05T08:36:02.867Z,21.49
2023-05-05T08:39:05.063Z,21.38
2023-05-05T08:42:07.849Z,21.54
2023-05-05T08:45:10.988Z,21.28
2023-05-05T08:48:13.666Z,20.94
2023-05-05T08:51:20.222Z,20.46
2023-05-05T08:54:23.705Z,20.85
2023-05-05T08:57:52.029Z,20.97
2023-05-05T09:00:54.736Z,21.16
2023-05-05T09:03:58.964Z,21.39
2023-05-05T09:07:01.221Z,21.46
2023-05-05T09:10:05.154Z,21.92
2023-05-05T09:13:07.415Z,22.09
2023-05-05T09:16:09.867Z,22.08
2023-05-05T09:19:12.088Z,21.33
2023-05-05T09:22:14.279Z,21.58
2023-05-05T09:25:18.371Z,21.71
2023-05-05T09:28:20.574Z,22.00
2023-05-05T09:31:22.861Z,22.10
2023-05-05T09:34:25.109Z,21.99
2023-05-05T09:37:31.507Z,22.02
2023-05-05T09:40:45.870Z,21.90
2023-05-05T09:43:52.417Z,22.16
2023-05-05T09:46:55.657Z,22.50
2023-05-05T09:50:00.825Z,22.01
2023-05-05T09:53:03.660Z,21.55
2023-05-05T09:56:06.986Z,21.08
2023-05-05T09:59:12.264Z,20.82
2023-05-05T10:02:14.423Z,21.20
2023-05-05T10:05:18.061Z,20.57
2023-05-05T10:08:25.899Z,20.45
2023-05-05T10:11:28.141Z,20.29
2023-05-05T10:14:31.868Z,20.82
2023-05-05T10:17:50.811Z,21.38
2023-05-05T10:21:03.290Z,21.78
2023-05-05T10:24:17.087Z,22.11
2023-05-05T10:27:20.600Z,22.24
2023-05-05T10:30:24.509Z,22.36
2023-05-05T10:33:35.365Z,22.34
2023-05-05T10:36:38.539Z,22.43
2023-05-05T10:39:41.212Z,22.39
2023-05-05T10:42:43.628Z,22.47
2023-05-05T10:45:46.405Z,22.76
2023-05-05T10:49:15.477Z,22.26
2023-05-05T10:52:28.567Z,21.81
2023-05-05T10:55:57.491Z,21.56
2023-05-05T10:59:00.840Z,21.27
2023-05-05T11:02:26.938Z,21.42
2023-05-05T11:05:29.372Z,21.28
2023-05-05T11:08:32.694Z,21.15
2023-05-05T11:12:03.467Z,21.41
2023-05-05T11:15:31.780Z,21.70
2023-05-05T11:18:38.786Z,22.08
2023-05-05T11:21:59.971Z,22.32
2023-05-05T11:25:44.285Z,22.58
2023-05-05T11:29:01.137Z,23.02
2023-05-05T11:32:16.031Z,22.29
2023-05-05T11:35:18.290Z,21.78
2023-05-05T11:38:26.441Z,22.42
2023-05-05T11:41:34.149Z,22.87
2023-05-05T11:44:36.480Z,23.11
2023-05-05T11:47:39.052Z,23.23
2023-05-05T11:50:41.855Z,23.31
2023-05-05T11:53:45.437Z,22.79
2023-05-05T11:56:54.455Z,22.83
2023-05-05T11:59:56.665Z,22.49
2023-05-05T12:02:59.395Z,22.89
2023-05-05T12:06:02.355Z,22.81
2023-05-05T12:09:04.564Z,22.84
2023-05-05T12:12:07.417Z,22.96
2023-05-05T12:15:10.020Z,22.92
2023-05-05T12:18:21.631Z,22.88
2023-05-05T12:21:23.878Z,23.26
2023-05-05T12:24:26.075Z,23.43
2023-05-05T12:27:28.722Z,23.56
2023-05-05T12:30:30.987Z,23.12
2023-05-05T12:33:39.275Z,23.21
2023-05-05T12:36:41.793Z,22.53
2023-05-05T12:39:44.033Z,22.03
2023-05-05T12:42:46.445Z,21.45
2023-05-05T12:45:49.472Z,20.72
2023-05-05T12:49:04.953Z,20.40
2023-05-05T12:52:07.940Z,20.65
2023-05-05T12:55:11.208Z,20.72
2023-05-05T12:58:13.426Z,20.92
2023-05-05T13:01:15.690Z,21.51
2023-05-05T13:04:18.469Z,22.10
2023-05-05T13:07:21.856Z,22.29
2023-05-05T13:10:25.094Z,22.67
2023-05-05T13:13:27.275Z,22.64
2023-05-05T13:16:30.146Z,22.65
2023-05-05T13:19:35.472Z,22.80
2023-05-05T13:22:37.703Z,22.89
2023-05-05T13:25:39.901Z,23.06
2023-05-05T13:28:42.144Z,22.39
2023-05-05T13:31:45.137Z,22.39
2023-05-05T13:34:47.459Z,22.69
2023-05-05T13:37:49.676Z,21.94
2023-05-05T13:40:51.917Z,22.10
2023-05-05T13:43:54.189Z,21.88
2023-05-05T13:46:56.577Z,22.04
2023-05-05T13:49:58.896Z,22.67
2023-05-05T13:53:01.322Z,22.79
2023-05-05T13:56:03.786Z,22.79
2023-05-05T13:59:05.986Z,22.73
2023-05-05T14:02:10.827Z,22.74
2023-05-05T14:05:13.128Z,22.92
2023-05-05T14:08:15.468Z,22.91
2023-05-05T14:11:18.193Z,23.02
2023-05-05T14:14:20.420Z,22.85
2023-05-05T14:17:22.690Z,22.83
2023-05-05T14:20:25.131Z,22.70
2023-05-05T14:23:27.350Z,22.58
2023-05-05T14:26:29.526Z,22.68
2023-05-05T14:29:31.687Z,22.64
2023-05-05T14:32:33.828Z,22.70
2023-05-05T14:35:36.048Z,22.69
2023-05-05T14:38:38.213Z,22.24
2023-05-05T14:41:40.456Z,22.37
2023-05-05T14:44:42.676Z,22.64
2023-05-05T14:47:45.172Z,22.48
2023-05-05T14:50:48.063Z,22.58
2023-05-05T14:53:50.650Z,22.77
2023-05-05T14:56:52.880Z,22.65
2023-05-05T14:59:55.064Z,22.27
2023-05-05T15:02:57.413Z,21.76
2023-05-05T15:05:59.953Z,21.69
2023-05-05T15:09:02.217Z,21.99
2023-05-05T15:12:04.867Z,22.19
2023-05-05T15:15:08.611Z,22.13
2023-05-05T15:18:11.628Z,22.27
2023-05-05T15:21:13.816Z,22.52
2023-05-05T15:24:16.027Z,22.61
2023-05-05T15:27:18.668Z,22.63
2023-05-05T15:30:20.995Z,22.37
2023-05-05T15:33:23.266Z,22.33
2023-05-05T15:36:25.458Z,22.30
2023-05-05T15:39:27.760Z,22.10
2023-05-05T15:42:32.737Z,22.07
2023-05-05T15:45:35.204Z,22.20
2023-05-05T15:48:37.502Z,21.94
2023-05-05T15:51:39.935Z,21.82
2023-05-05T15:54:42.190Z,21.50
2023-05-05T15:57:44.468Z,21.47
2023-05-05T16:00:46.753Z,21.38
2023-05-05T16:03:49.027Z,21.20
2023-05-05T16:06:51.251Z,21.19
2023-05-05T16:09:53.516Z,21.15
2023-05-05T16:12:56.043Z,21.31
2023-05-05T16:15:58.320Z,21.46
2023-05-05T16:19:00.793Z,21.26
2023-05-05T16:22:03.075Z,21.33
2023-05-05T16:25:06.512Z,21.34
2023-05-05T16:28:08.835Z,21.24
2023-05-05T16:31:13.505Z,21.31
2023-05-05T16:34:16.498Z,21.14
2023-05-05T16:37:18.830Z,21.14
2023-05-05T16:40:21.161Z,21.23
2023-05-05T16:43:23.342Z,21.22
2023-05-05T16:46:25.745Z,21.35
2023-05-05T16:49:28.090Z,21.16
2023-05-05T16:52:30.350Z,21.22
2023-05-05T16:55:32.534Z,21.28
2023-05-05T16:58:34.736Z,21.03
2023-05-05T17:01:37.307Z,20.84
2023-05-05T17:04:39.725Z,20.87
2023-05-05T17:07:42.025Z,20.65
2023-05-05T17:10:45.120Z,20.81
2023-05-05T17:13:47.492Z,20.85
2023-05-05T17:16:50.678Z,20.71
2023-05-05T17:19:52.908Z,20.73
2023-05-05T17:22:55.157Z,20.75
2023-05-05T17:25:58.832Z,20.61
2023-05-05T17:29:01.421Z,20.51
2023-05-05T17:32:03.845Z,20.52
2023-05-05T17:35:06.856Z,20.16
2023-05-05T17:38:09.380Z,20.29
2023-05-05T17:41:11.563Z,20.32
2023-05-05T17:44:13.752Z,20.18
2023-05-05T17:47:15.963Z,20.14
2023-05-05T17:50:18.232Z,19.81
2023-05-05T17:53:21.105Z,19.50
2023-05-05T17:56:23.382Z,19.39
2023-05-05T17:59:25.893Z,19.16
2023-05-05T18:02:28.240Z,19.06
2023-05-05T18:05:30.835Z,18.94
2023-05-05T18:08:32.985Z,18.58
2023-05-05T18:11:35.960Z,18.54
2023-05-05T18:14:38.161Z,18.40
2023-05-05T18:17:40.797Z,18.03
2023-05-05T18:20:43.989Z,17.57
2023-05-05T18:23:46.325Z,17.19
2023-05-05T18:26:50.308Z,17.34
2023-05-05T18:29:52.662Z,16.88
2023-05-05T18:32:54.948Z,16.84
2023-05-05T18:35:57.799Z,16.67
2023-05-05T18:39:00.088Z,16.94
2023-05-05T18:42:03.231Z,16.95
2023-05-05T18:45:06.571Z,16.84
2023-05-05T18:48:08.898Z,16.67
2023-05-05T18:51:11.147Z,16.43
2023-05-05T18:54:13.337Z,16.10
2023-05-05T18:57:15.688Z,15.90
2023-05-05T19:00:19.848Z,15.75
2023-05-05T19:03:22.278Z,15.66
2023-05-05T19:06:24.518Z,15.75
2023-05-05T19:09:27.594Z,15.48
2023-05-05T19:12:30.272Z,15.35
2023-05-05T19:15:32.712Z,15.35
2023-05-05T19:18:35.007Z,15.30
2023-05-05T19:21:37.219Z,15.18
2023-05-05T19:24:39.469Z,15.08
2023-05-05T19:27:41.662Z,15.17
2023-05-05T19:30:43.936Z,14.98
2023-05-05T19:33:46.128Z,14.77
2023-05-05T19:36:48.417Z,14.69
2023-05-05T19:39:51.643Z,14.66
2023-05-05T19:42:53.915Z,14.58
2023-05-05T19:45:56.181Z,14.61
2023-05-05T19:48:58.394Z,14.59
2023-05-05T19:52:00.807Z,14.64
2023-05-05T19:55:03.962Z,14.54
2023-05-05T19:58:06.327Z,14.38
2023-05-05T20:01:08.568Z,14.27
2023-05-05T20:04:10.847Z,14.24
2023-05-05T20:07:13.156Z,14.28
2023-05-05T20:10:16.669Z,14.17
2023-05-05T20:13:18.907Z,14.09
2023-05-05T20:16:24.328Z,13.91
2023-05-05T20:19:26.578Z,14.01
2023-05-05T20:22:28.797Z,13.90
2023-05-05T20:25:31.020Z,13.81
2023-05-05T20:28:36.009Z,13.75
2023-05-05T20:31:38.247Z,13.77
2023-05-05T20:34:40.473Z,13.65
2023-05-05T20:37:45.041Z,13.57
2023-05-05T20:40:47.251Z,13.56
2023-05-05T20:43:49.452Z,13.53
2023-05-05T20:46:51.715Z,13.50
2023-05-05T20:49:54.333Z,13.51
2023-05-05T20:52:56.609Z,13.38
2023-05-05T20:55:58.857Z,13.42
2023-05-05T20:59:01.058Z,13.43
2023-05-05T21:02:03.527Z,13.45
2023-05-05T21:05:06.267Z,13.27
2023-05-05T21:08:08.526Z,13.26
2023-05-05T21:11:10.769Z,13.28
2023-05-05T21:14:13.385Z,13.23
2023-05-05T21:17:15.689Z,13.08
2023-05-05T21:20:18.733Z,13.11
2023-05-05T21:23:20.971Z,12.96
2023-05-05T21:26:25.064Z,13.10
2023-05-05T21:29:27.403Z,13.04
2023-05-05T21:32:29.781Z,12.92
2023-05-05T21:35:32.177Z,12.96
2023-05-05T21:38:34.577Z,12.99
2023-05-05T21:41:36.739Z,12.89
2023-05-05T21:44:38.972Z,12.87
2023-05-05T21:47:41.292Z,12.80
2023-05-05T21:50:43.924Z,12.86
2023-05-05T21:53:46.507Z,12.87
2023-05-05T21:56:49.002Z,12.96
2023-05-05T21:59:51.327Z,12.92
2023-05-05T22:02:53.680Z,12.74
2023-05-05T22:05:55.993Z,12.72
2023-05-05T22:08:58.248Z,12.69
2023-05-05T22:12:00.516Z,12.75
2023-05-05T22:15:02.793Z,12.80
2023-05-05T22:18:05.066Z,12.80
2023-05-05T22:21:07.300Z,12.92
2023-05-05T22:24:09.506Z,12.87
2023-05-05T22:27:11.867Z,12.77
2023-05-05T22:30:14.343Z,12.82
2023-05-05T22:33:16.854Z,12.83
2023-05-05T22:36:19.096Z,12.80
2023-05-05T22:39:21.288Z,12.72
2023-05-05T22:42:23.416Z,12.65
2023-05-05T22:45:26.188Z,12.66
2023-05-05T22:48:28.359Z,12.69
2023-05-05T22:51:30.543Z,12.74
2023-05-05T22:54:32.828Z,12.78
2023-05-05T22:57:36.132Z,12.84
2023-05-05T23:00:38.893Z,12.89
2023-05-05T23:03:41.528Z,12.88
2023-05-05T23:06:44.899Z,12.83
2023-05-05T23:09:47.303Z,12.87
2023-05-05T23:12:49.520Z,12.82
2023-05-05T23:15:51.838Z,12.81
2023-05-05T23:18:54.080Z,12.78
2023-05-05T23:21:56.914Z,12.75
2023-05-05T23:24:59.097Z,12.72
2023-05-05T23:28:01.460Z,12.81
2023-05-05T23:31:03.716Z,12.73
2023-05-05T23:34:06.322Z,12.62
2023-05-05T23:37:08.561Z,12.53
2023-05-05T23:40:11.068Z,12.56
2023-05-05T23:43:13.314Z,12.46
2023-05-05T23:46:15.711Z,12.46
2023-05-05T23:49:17.908Z,12.39
2023-05-05T23:52:20.096Z,12.41
2023-05-05T23:55:22.381Z,12.34
2023-05-05T23:58:24.580Z,12.38
